Time;durP1;ratioP1;P1;durP2;ratioP2;P2;SDS_P1;SDS_P2;PMS_P1;PMS_P2;Temp;Humidity;BMP_temperature;BMP_pressure;BME280_temperature;BME280_humidity;BME280_pressure;Samples;Min_cycle;Max_cycle;Signal;HPM_P1;HPM_P2
2022/05/07 00:01:08;;;;;;;28.35;17.63;;;;;;;11.11;100.00;102187.84;5133735;28;20276;-76
2022/05/07 00:03:33;;;;;;;30.70;17.03;;;;;;;11.22;100.00;102193.75;5133031;28;20057;-76
2022/05/07 00:05:58;;;;;;;24.95;16.00;;;;;;;11.32;100.00;102197.81;5115279;28;20284;-77
2022/05/07 00:08:24;;;;;;;30.42;17.02;;;;;;;11.37;100.00;102198.09;5133072;28;20074;-76
2022/05/07 00:10:49;;;;;;;26.48;17.13;;;;;;;11.39;100.00;102193.38;5134216;28;20027;-76
2022/05/07 00:13:14;;;;;;;28.50;16.70;;;;;;;11.41;100.00;102179.78;5114574;28;20076;-76
2022/05/07 00:15:40;;;;;;;28.23;18.20;;;;;;;11.42;100.00;102182.28;5114728;28;20509;-76
2022/05/07 00:21:27;;;;;;;31.30;18.30;;;;;;;11.41;100.00;102182.47;5133614;27;20045;-76
2022/05/07 00:23:52;;;;;;;32.22;18.20;;;;;;;11.30;100.00;102172.25;5133378;28;20460;-76
2022/05/07 00:26:17;;;;;;;29.80;17.92;;;;;;;11.26;100.00;102179.78;5132709;28;20054;-76
2022/05/07 00:28:44;;;;;;;34.37;20.13;;;;;;;11.16;100.00;102181.94;5133334;28;20019;-76
2022/05/07 00:31:09;;;;;;;30.98;18.75;;;;;;;11.00;100.00;102177.59;5114120;28;20284;-76
2022/05/07 00:33:35;;;;;;;34.33;19.60;;;;;;;11.00;100.00;102179.44;5133264;28;20031;-76
2022/05/07 00:36:00;;;;;;;42.17;20.00;;;;;;;10.97;100.00;102169.09;5114735;28;20288;-76
2022/05/07 00:38:26;;;;;;;31.40;18.93;;;;;;;11.03;100.00;102181.75;5114201;28;20426;-76
2022/05/07 00:40:51;;;;;;;35.90;19.08;;;;;;;11.03;100.00;102171.03;5114695;28;20641;-76
2022/05/07 00:43:17;;;;;;;33.57;19.20;;;;;;;11.01;100.00;102173.91;5132275;28;20035;-76
2022/05/07 00:45:45;;;;;;;33.28;19.80;;;;;;;10.96;100.00;102170.09;5114771;28;20345;-76
2022/05/07 00:48:11;;;;;;;34.28;19.98;;;;;;;10.93;100.00;102167.78;5133139;27;20072;-76
2022/05/07 00:53:22;;;;;;;34.60;19.08;;;;;;;10.90;100.00;102162.81;5133016;28;20402;-76
2022/05/07 00:55:49;;;;;;;33.58;20.58;;;;;;;10.89;100.00;102161.16;5131987;28;20221;-76
2022/05/07 00:58:15;;;;;;;32.55;18.30;;;;;;;10.96;100.00;102172.78;5132860;28;20054;-76
2022/05/07 01:00:43;;;;;;;34.10;19.33;;;;;;;10.89;100.00;102166.50;5132005;28;20521;-76
2022/05/07 01:03:09;;;;;;;36.28;19.75;;;;;;;10.84;100.00;102167.88;5132858;28;20023;-76
2022/05/07 01:05:34;;;;;;;33.30;20.13;;;;;;;10.85;100.00;102171.41;5114381;28;20031;-76
2022/05/07 01:08:00;;;;;;;33.10;20.60;;;;;;;10.74;100.00;102161.16;5131858;28;20043;-76
2022/05/07 01:10:27;;;;;;;39.28;22.92;;;;;;;10.75;100.00;102165.50;5132755;28;20268;-76
2022/05/07 01:12:54;;;;;;;43.15;20.55;;;;;;;10.69;100.00;102164.34;5131809;28;20051;-77
2022/05/07 01:15:20;;;;;;;33.17;20.83;;;;;;;10.63;100.00;102162.41;5113986;28;20534;-76
2022/05/07 01:17:45;;;;;;;34.97;21.27;;;;;;;10.64;100.00;102161.38;5114147;28;20027;-76
2022/05/07 01:20:12;;;;;;;40.83;23.05;;;;;;;10.60;100.00;102157.41;5131859;28;20041;-76
2022/05/07 01:22:38;;;;;;;40.25;22.00;;;;;;;10.64;100.00;102161.38;5132533;28;20495;-76
2022/05/07 01:25:05;;;;;;;35.35;21.67;;;;;;;10.66;100.00;102148.66;5131664;28;20138;-77
2022/05/07 01:27:31;;;;;;;36.65;22.23;;;;;;;10.66;100.00;102150.50;5132462;28;20055;-76
2022/05/07 01:29:56;;;;;;;37.25;21.10;;;;;;;10.69;100.00;102150.97;5131800;28;20114;-76
2022/05/07 01:32:22;;;;;;;39.07;21.43;;;;;;;10.78;100.00;102152.56;5132133;28;20047;-76
2022/05/07 01:34:47;;;;;;;39.58;21.85;;;;;;;10.82;100.00;102151.19;5131372;27;20345;-76
2022/05/07 01:37:13;;;;;;;39.25;21.55;;;;;;;10.80;100.00;102142.50;5113389;28;20471;-76
2022/05/07 01:39:38;;;;;;;37.95;21.88;;;;;;;10.90;100.00;102157.47;5132227;28;20092;-76
2022/05/07 01:42:04;;;;;;;36.88;21.85;;;;;;;10.87;100.00;102147.97;5131496;28;20035;-77
2022/05/07 01:44:29;;;;;;;35.33;21.73;;;;;;;10.86;100.00;102146.28;5132135;28;20382;-76
2022/05/07 01:49:38;;;;;;;37.90;20.83;;;;;;;10.81;100.00;102148.69;5131407;28;20310;-76
2022/05/07 01:52:03;;;;;;;34.67;21.77;;;;;;;10.78;100.00;102147.22;5132026;28;20523;-76
2022/05/07 01:54:29;;;;;;;36.95;22.30;;;;;;;10.82;100.00;102145.00;5131196;28;20049;-76
2022/05/07 01:56:54;;;;;;;38.83;23.45;;;;;;;10.80;100.00;102145.19;5131914;28;20031;-76
2022/05/07 01:59:19;;;;;;;38.37;21.37;;;;;;;10.72;100.00;102144.44;5132088;28;20471;-76
2022/05/07 02:01:45;;;;;;;35.70;22.52;;;;;;;10.67;100.00;102150.31;5131251;28;20359;-77
2022/05/07 02:04:10;;;;;;;40.77;22.20;;;;;;;10.60;100.00;102137.88;5113622;28;20023;-76
2022/05/07 02:06:35;;;;;;;37.60;21.63;;;;;;;10.59;100.00;102129.00;5112961;28;20280;-76
2022/05/07 02:09:00;;;;;;;37.55;21.88;;;;;;;10.65;100.00;102136.31;5113557;28;20831;-76
2022/05/07 02:11:26;;;;;;;38.90;22.05;;;;;;;10.70;100.00;102135.78;5112915;28;20035;-76
2022/05/07 02:13:51;;;;;;;40.67;22.48;;;;;;;10.70;100.00;102131.25;5113240;28;20399;-76
2022/05/07 02:16:16;;;;;;;40.37;22.53;;;;;;;10.69;100.00;102139.44;5113303;28;20035;-76
2022/05/07 02:18:42;;;;;;;36.53;21.75;;;;;;;10.62;100.00;102138.50;5130965;28;20610;-76
2022/05/07 02:21:07;;;;;;;46.58;24.38;;;;;;;10.50;100.00;102124.75;5131863;28;20069;-76
2022/05/07 02:23:32;;;;;;;41.05;23.25;;;;;;;10.49;100.00;102123.09;5130932;28;20043;-77
2022/05/07 02:25:58;;;;;;;39.03;22.50;;;;;;;10.43;100.00;102127.34;5113455;28;20031;-76
2022/05/07 02:28:23;;;;;;;41.57;23.20;;;;;;;10.37;100.00;102121.88;5131577;28;20265;-76
2022/05/07 02:30:48;;;;;;;57.65;23.50;;;;;;;10.33;100.00;102118.72;5130819;28;20292;-76
2022/05/07 02:33:13;;;;;;;43.60;22.60;;;;;;;10.28;100.00;102115.78;5131637;28;20023;-76
2022/05/07 02:35:39;;;;;;;41.30;23.02;;;;;;;10.25;100.00;102116.13;5130619;28;20730;-76
2022/05/07 02:38:04;;;;;;;42.90;22.98;;;;;;;10.23;100.00;102110.97;5131569;28;20059;-76
2022/05/07 02:40:29;;;;;;;47.13;24.27;;;;;;;10.24;100.00;102114.47;5113108;28;20023;-77
2022/05/07 02:42:55;;;;;;;44.25;25.05;;;;;;;10.24;100.00;102107.28;5112562;28;20096;-77
2022/05/07 02:45:20;;;;;;;41.20;23.90;;;;;;;10.23;100.00;102100.28;5132723;27;20031;-76
2022/05/07 02:47:45;;;;;;;40.83;23.45;;;;;;;10.33;100.00;102105.34;5115911;28;20768;-76
2022/05/07 02:50:11;;;;;;;43.33;23.97;;;;;;;10.41;100.00;102110.66;5116501;28;20020;-76
2022/05/07 02:55:58;;;;;;;46.67;23.20;;;;;;;10.43;100.00;102103.28;5135237;27;20498;-76
2022/05/07 02:58:23;;;;;;;40.47;23.08;;;;;;;10.49;100.00;102107.88;5134819;28;20024;-76
2022/05/07 03:00:49;;;;;;;48.47;23.55;;;;;;;10.41;100.00;102104.47;5133995;28;20043;-76
2022/05/07 03:03:15;;;;;;;41.17;22.67;;;;;;;10.40;100.00;102106.28;5134819;28;20031;-76
2022/05/07 03:05:40;;;;;;;47.40;24.33;;;;;;;10.41;100.00;102099.97;5133922;28;20156;-76
2022/05/07 03:08:06;;;;;;;44.67;24.10;;;;;;;10.45;100.00;102108.44;5134825;28;20038;-76
2022/05/07 03:10:31;;;;;;;44.72;23.10;;;;;;;10.48;100.00;102108.06;5116121;28;20056;-76
2022/05/07 03:12:56;;;;;;;44.33;23.40;;;;;;;10.55;100.00;102115.19;5115873;28;20399;-76
2022/05/07 03:15:22;;;;;;;44.27;23.77;;;;;;;10.54;100.00;102110.84;5134433;28;20076;-76
2022/05/07 03:17:47;;;;;;;44.30;24.42;;;;;;;10.42;100.00;102096.28;5133778;28;20780;-77
2022/05/07 03:20:16;;;;;;;46.80;24.33;;;;;;;10.49;100.00;102109.72;5134498;28;20055;-77
2022/05/07 03:22:42;;;;;;;51.50;26.70;;;;;;;10.50;100.00;102116.75;5115319;28;20345;-76
2022/05/07 03:25:07;;;;;;;47.55;25.45;;;;;;;10.55;100.00;102120.53;5134364;28;20039;-76
2022/05/07 03:27:33;;;;;;;44.53;23.70;;;;;;;10.52;100.00;102106.69;5134401;28;20027;-76
2022/05/07 03:29:58;;;;;;;51.53;25.65;;;;;;;10.53;100.00;102111.03;5133384;28;20039;-77
2022/05/07 03:32:23;;;;;;;46.13;24.00;;;;;;;10.53;100.00;102108.34;5134309;28;20480;-76
2022/05/07 03:34:49;;;;;;;51.50;26.57;;;;;;;10.53;100.00;102113.69;5115111;28;20096;-76
2022/05/07 03:37:15;;;;;;;48.03;24.48;;;;;;;10.50;100.00;102112.22;5115784;28;20764;-76
2022/05/07 03:39:41;;;;;;;49.10;24.83;;;;;;;10.51;100.00;102118.41;5134267;28;20035;-76
2022/05/07 03:42:06;;;;;;;48.33;24.45;;;;;;;10.51;100.00;102119.22;5115196;28;20100;-76
2022/05/07 03:44:31;;;;;;;43.58;25.10;;;;;;;10.54;100.00;102115.38;5115565;28;20463;-76
2022/05/07 03:46:57;;;;;;;42.88;23.58;;;;;;;10.59;100.00;102118.31;5133292;27;20081;-76
2022/05/07 03:49:22;;;;;;;49.08;26.73;;;;;;;10.51;100.00;102113.88;5133995;28;20054;-76
2022/05/07 03:55:09;;;;;;;55.22;28.50;;;;;;;10.52;100.00;102120.06;5133861;28;20468;-76
2022/05/07 03:57:34;;;;;;;47.60;26.53;;;;;;;10.44;100.00;102114.81;5114812;28;20487;-76
2022/05/07 04:00:00;;;;;;;57.33;28.97;;;;;;;10.48;100.00;102126.78;5114924;28;20285;-76
2022/05/07 04:02:26;;;;;;;55.95;27.70;;;;;;;10.45;100.00;102127.16;5133751;28;20273;-76
2022/05/07 04:04:51;;;;;;;52.03;28.92;;;;;;;10.49;100.00;102128.47;5132809;28;20403;-76
2022/05/07 04:07:16;;;;;;;56.38;27.65;;;;;;;10.51;100.00;102131.78;5133789;28;20087;-76
2022/05/07 04:09:42;;;;;;;52.70;26.65;;;;;;;10.46;100.00;102128.81;5114584;28;20024;-76
2022/05/07 04:12:08;;;;;;;57.38;28.17;;;;;;;10.41;100.00;102126.69;5115094;28;20038;-76
2022/05/07 04:14:33;;;;;;;61.17;29.58;;;;;;;10.45;100.00;102129.84;5133472;28;20034;-76
2022/05/07 04:16:58;;;;;;;63.03;31.58;;;;;;;10.45;100.00;102127.16;5114491;28;20147;-76
2022/05/07 04:19:24;;;;;;;60.40;29.92;;;;;;;10.42;100.00;102127.53;5115090;28;20114;-76
2022/05/07 04:21:50;;;;;;;61.10;30.23;;;;;;;10.40;100.00;102134.88;5132724;28;20284;-76
2022/05/07 04:24:15;;;;;;;68.47;35.92;;;;;;;10.33;100.00;102129.41;5133500;28;20725;-76
2022/05/07 04:26:40;;;;;;;69.45;34.97;;;;;;;10.33;100.00;102129.41;5133387;28;20066;-76
2022/05/07 04:29:05;;;;;;;67.00;32.00;;;;;;;10.39;100.00;102135.88;5114383;28;20035;-76
2022/05/07 04:31:31;;;;;;;62.05;31.95;;;;;;;10.40;100.00;102135.69;5114844;28;20277;-76
2022/05/07 04:33:56;;;;;;;67.83;34.07;;;;;;;10.43;100.00;102139.88;5132435;28;20043;-76
2022/05/07 04:36:21;;;;;;;72.45;34.22;;;;;;;10.49;100.00;102150.69;5114711;28;20856;-76
2022/05/07 04:38:47;;;;;;;62.70;34.08;;;;;;;10.54;100.00;102147.47;5114661;28;20027;-76
2022/05/07 04:41:12;;;;;;;71.60;36.70;;;;;;;10.52;100.00;102141.47;5114273;28;20043;-76
2022/05/07 04:43:37;;;;;;;69.83;32.80;;;;;;;10.50;100.00;102141.66;5133072;28;20023;-77
2022/05/07 04:46:02;;;;;;;68.10;33.75;;;;;;;10.55;100.00;102133.91;5114185;28;20285;-76
2022/05/07 04:48:28;;;;;;;69.30;34.22;;;;;;;10.67;100.00;102147.66;5114515;28;20024;-76
2022/05/07 04:50:53;;;;;;;78.53;39.22;;;;;;;10.75;100.00;102144.91;5114624;28;20108;-76
2022/05/07 04:53:18;;;;;;;79.43;39.88;;;;;;;10.91;100.00;102145.75;5132168;28;20043;-76
2022/05/07 04:55:43;;;;;;;88.45;42.50;;;;;;;11.01;100.00;102151.66;5132823;28;20115;-76
2022/05/07 04:58:09;;;;;;;89.38;45.65;;;;;;;11.09;100.00;102147.03;5113944;28;20487;-76
2022/05/07 05:00:34;;;;;;;84.75;43.35;;;;;;;11.21;100.00;102151.91;5132858;28;20026;-76
2022/05/07 05:03:00;;;;;;;86.82;44.55;;;;;;;11.27;100.00;102146.63;5113650;28;20499;-76
2022/05/07 05:05:25;;;;;;;94.35;46.15;;;;;;;11.35;100.00;102154.59;5114207;28;20076;-76
2022/05/07 05:07:51;;;;;;;92.47;46.17;;;;;;;11.39;100.00;102152.38;5114145;27;20058;-76
2022/05/07 05:10:17;;;;;;;95.97;49.45;;;;;;;11.50;100.00;102157.25;5130979;28;20296;-76
2022/05/07 05:12:43;;;;;;;98.05;47.72;;;;;;;11.59;100.00;102160.66;5114194;28;20390;-76
2022/05/07 05:15:09;;;;;;;100.67;47.70;;;;;;;11.66;100.00;102161.56;5113643;28;20130;-76
2022/05/07 05:17:34;;;;;;;98.30;49.03;;;;;;;11.78;100.00;102168.09;5114051;28;20284;-76
2022/05/07 05:20:01;;;;;;;105.07;50.88;;;;;;;11.83;100.00;102167.53;5132072;28;20364;-76
2022/05/07 05:22:27;;;;;;;113.10;52.15;;;;;;;11.90;100.00;102185.38;5132171;28;20046;-76
2022/05/07 05:24:52;;;;;;;100.55;51.53;;;;;;;11.93;100.00;102178.78;5132569;28;20031;-76
2022/05/07 05:27:17;;;;;;;111.88;53.33;;;;;;;12.10;100.00;102185.56;5113523;28;20031;-77
2022/05/07 05:29:43;;;;;;;102.65;52.13;;;;;;;12.20;100.00;102185.25;5132415;28;20030;-76
2022/05/07 05:32:08;;;;;;;101.83;50.30;;;;;;;12.35;100.00;102183.31;5131662;28;20038;-76
2022/05/07 05:37:55;;;;;;;112.25;49.38;;;;;;;12.93;100.00;102202.78;5131870;28;20102;-77
2022/05/07 05:40:21;;;;;;;99.57;48.20;;;;;;;13.09;100.00;102193.59;5132303;28;20039;-77
2022/05/07 05:42:46;;;;;;;104.13;49.00;;;;;;;13.23;100.00;102196.19;5113799;28;20066;-76
2022/05/07 05:45:11;;;;;;;99.88;47.90;;;;;;;13.35;100.00;102198.34;5113184;28;20799;-76
2022/05/07 05:47:36;;;;;;;89.93;46.05;;;;;;;13.43;99.63;102187.41;5132121;27;20103;-75
2022/05/07 05:50:03;;;;;;;96.27;47.57;;;;;;;13.56;99.62;102198.22;5113071;28;20134;-76
2022/05/07 05:52:28;;;;;;;102.88;47.45;;;;;;;13.67;98.61;102192.28;5132132;28;20356;-76
2022/05/07 05:54:53;;;;;;;99.05;47.78;;;;;;;13.75;97.68;102189.41;5131985;28;20489;-77
2022/05/07 05:57:19;;;;;;;95.90;47.47;;;;;;;13.97;97.35;102191.94;5131199;28;20501;-76
2022/05/07 05:59:44;;;;;;;96.93;47.73;;;;;;;14.29;95.71;102198.44;5113586;28;20295;-77
2022/05/07 06:02:09;;;;;;;93.23;45.83;;;;;;;14.66;92.21;102197.84;5131088;28;20292;-77
2022/05/07 06:04:35;;;;;;;102.10;46.88;;;;;;;15.10;89.19;102199.88;5113409;28;20633;-76
2022/05/07 06:07:00;;;;;;;89.20;44.20;;;;;;;15.50;87.83;102197.88;5131917;28;20035;-77
2022/05/07 06:09:28;;;;;;;99.07;45.00;;;;;;;15.80;84.93;102189.28;5112987;28;20644;-77
2022/05/07 06:11:56;;;;;;;89.00;43.53;;;;;;;16.41;82.71;102197.59;5131872;28;20323;-77
2022/05/07 06:14:22;;;;;;;86.93;43.03;;;;;;;16.95;79.04;102200.69;5131007;28;20039;-77
2022/05/07 06:16:47;;;;;;;98.18;44.30;;;;;;;17.41;77.18;102199.38;5131869;28;20035;-77
2022/05/07 06:19:12;;;;;;;86.00;41.60;;;;;;;17.84;75.58;102201.97;5131243;27;20032;-77
2022/05/07 06:21:38;;;;;;;82.60;42.67;;;;;;;18.23;72.70;102212.25;5134674;28;20372;-77
2022/05/07 06:29:31;;;;;;;76.57;37.13;;;;;;;19.18;67.72;102208.59;5135272;28;20130;-76
2022/05/07 06:31:57;;;;;;;77.80;38.83;;;;;;;19.56;66.05;102205.34;5134409;28;20118;-77
2022/05/07 06:34:23;;;;;;;71.97;37.35;;;;;;;19.92;64.21;102208.75;5135377;28;20276;-77
2022/05/07 06:36:49;;;;;;;87.72;37.33;;;;;;;20.24;62.53;102214.50;5134630;28;20037;-77
2022/05/07 06:39:16;;;;;;;78.63;37.10;;;;;;;20.91;60.44;102211.84;5116500;28;20051;-77
2022/05/07 06:41:41;;;;;;;83.13;37.53;;;;;;;21.34;58.79;102208.38;5135229;28;20463;-77
2022/05/07 06:44:06;;;;;;;80.53;36.60;;;;;;;22.02;56.68;102206.16;5116031;28;20039;-77
2022/05/07 06:46:32;;;;;;;73.95;35.22;;;;;;;22.21;53.14;102213.72;5134912;27;20039;-77
2022/05/07 06:48:57;;;;;;;74.57;35.27;;;;;;;22.32;54.33;102211.94;5115717;28;20196;-77
2022/05/07 06:51:24;;;;;;;67.65;34.60;;;;;;;22.69;53.46;102205.69;5116558;28;20867;-78
2022/05/07 06:53:49;;;;;;;68.50;35.05;;;;;;;22.96;52.47;102222.81;5134871;28;20387;-77
2022/05/07 06:56:14;;;;;;;73.55;33.70;;;;;;;23.28;50.56;102209.06;5134040;28;20092;-77
2022/05/07 06:58:41;;;;;;;65.03;34.93;;;;;;;23.43;50.49;102216.53;5116283;28;20023;-77
2022/05/07 07:01:07;;;;;;;62.35;33.50;;;;;;;23.82;49.09;102219.69;5115703;28;20333;-77
2022/05/07 07:06:55;;;;;;;68.60;34.65;;;;;;;24.67;46.18;102220.91;5134989;28;20069;-77
2022/05/07 07:09:20;;;;;;;66.07;35.45;;;;;;;25.04;45.62;102221.69;5134630;28;20034;-79
2022/05/07 07:11:45;;;;;;;68.03;34.17;;;;;;;25.00;44.81;102221.41;5116014;28;20023;-78
2022/05/07 07:14:11;;;;;;;67.07;34.87;;;;;;;24.74;45.23;102226.06;5133930;28;20126;-78
2022/05/07 07:16:36;;;;;;;63.92;32.17;;;;;;;25.07;44.56;102211.00;5134415;28;20285;-77
2022/05/07 07:19:02;;;;;;;67.53;33.75;;;;;;;25.52;43.32;102222.91;5115729;28;20050;-78
2022/05/07 07:21:28;;;;;;;63.55;33.45;;;;;;;25.79;42.60;102214.28;5116255;28;20117;-77
2022/05/07 07:23:53;;;;;;;66.13;32.23;;;;;;;26.19;41.85;102224.16;5134368;28;20514;-78
2022/05/07 07:26:19;;;;;;;69.00;33.35;;;;;;;26.05;41.10;102221.25;5133623;28;20288;-77
2022/05/07 07:28:44;;;;;;;63.15;32.03;;;;;;;25.95;41.65;102218.56;5134484;28;20532;-77
2022/05/07 07:31:09;;;;;;;70.00;30.73;;;;;;;26.38;40.87;102213.38;5132965;27;20409;-77
2022/05/07 07:33:35;;;;;;;64.25;31.42;;;;;;;27.03;39.97;102216.59;5133759;28;20356;-78
2022/05/07 07:36:01;;;;;;;57.50;29.70;;;;;;;27.70;38.09;102207.25;5115266;28;20046;-78
2022/05/07 07:38:26;;;;;;;66.17;30.33;;;;;;;28.31;36.67;102214.63;5115651;28;20542;-78
2022/05/07 07:40:53;;;;;;;57.45;27.85;;;;;;;28.50;35.15;102220.09;5134146;28;20023;-78
2022/05/07 07:43:20;;;;;;;54.53;26.92;;;;;;;28.79;34.98;102219.84;5133327;28;20095;-78
2022/05/07 07:48:30;;;;;;;57.45;27.40;;;;;;;29.76;33.90;102226.19;5133167;27;20093;-77
2022/05/07 07:50:55;;;;;;;51.33;27.15;;;;;;;30.74;32.50;102218.06;5134203;28;20057;-78
2022/05/07 07:53:24;;;;;;;52.83;27.25;;;;;;;31.05;30.53;102227.13;5134055;28;20074;-78
2022/05/07 07:55:51;;;;;;;55.03;26.50;;;;;;;31.49;31.12;102222.56;5133099;28;20047;-78
2022/05/07 07:58:16;;;;;;;51.65;26.30;;;;;;;31.97;29.76;102225.25;5133904;28;20023;-78
2022/05/07 08:00:44;;;;;;;54.13;27.40;;;;;;;32.74;28.74;102226.31;5133104;28;20040;-78
2022/05/07 08:03:12;;;;;;;48.75;25.13;;;;;;;33.35;26.92;102226.91;5133922;28;20463;-77
2022/05/07 08:05:38;;;;;;;46.58;26.33;;;;;;;34.00;25.73;102224.66;5114907;28;20080;-78
2022/05/07 08:13:37;;;;;;;46.05;25.65;;;;;;;32.96;26.83;102225.25;5133148;28;20038;-78
2022/05/07 08:16:03;;;;;;;49.35;26.85;;;;;;;30.98;29.27;102207.44;5133453;28;20445;-78
2022/05/07 08:18:29;;;;;;;54.25;28.13;;;;;;;29.49;32.13;102216.88;5132580;28;20050;-78
2022/05/07 08:20:56;;;;;;;47.08;27.08;;;;;;;28.33;33.80;102214.31;5133553;28;20035;-78
2022/05/07 08:23:22;;;;;;;49.97;28.05;;;;;;;27.81;35.47;102207.13;5114976;28;20023;-77
2022/05/07 08:25:48;;;;;;;49.50;27.00;;;;;;;27.40;36.01;102218.63;5132988;28;20054;-78
2022/05/07 08:28:13;;;;;;;53.42;29.20;;;;;;;26.85;37.27;102215.38;5133368;28;20034;-78
2022/05/07 08:30:39;;;;;;;53.00;29.13;;;;;;;26.62;37.54;102224.41;5132454;28;20043;-78
2022/05/07 08:33:05;;;;;;;56.33;28.25;;;;;;;26.57;38.05;102222.50;5133269;28;20027;-78
2022/05/07 08:35:31;;;;;;;53.25;28.73;;;;;;;27.14;36.93;102223.59;5132475;28;20047;-78
2022/05/07 08:37:56;;;;;;;54.55;28.30;;;;;;;28.27;35.29;102229.28;5114895;28;20068;-78
2022/05/07 08:40:22;;;;;;;51.03;27.48;;;;;;;29.59;33.27;102227.66;5133077;28;20027;-77
2022/05/07 08:42:48;;;;;;;52.70;26.85;;;;;;;30.81;31.35;102227.50;5132025;27;20043;-78
2022/05/07 08:45:13;;;;;;;48.55;26.13;;;;;;;31.10;29.47;102215.94;5133128;28;20364;-78
2022/05/07 08:47:41;;;;;;;49.15;26.42;;;;;;;31.79;28.79;102231.09;5113980;28;20085;-78
2022/05/07 08:50:13;;;;;;;48.88;25.17;;;;;;;32.82;27.59;102233.78;5133171;28;20058;-78
2022/05/07 08:52:43;;;;;;;44.65;24.65;;;;;;;34.10;26.80;102238.91;5133097;28;20034;-78
2022/05/07 08:55:14;;;;;;;45.92;24.70;;;;;;;34.70;25.58;102226.41;5132233;28;20073;-78
2022/05/07 08:57:40;;;;;;;48.10;25.92;;;;;;;34.59;24.75;102224.41;5114383;28;20023;-77
2022/05/07 09:00:07;;;;;;;50.28;28.20;;;;;;;34.24;25.03;102221.16;5132097;28;20548;-78
2022/05/07 09:02:42;;;;;;;47.33;24.92;;;;;;;35.06;25.93;102227.63;5132739;28;20030;-78
2022/05/07 09:05:12;;;;;;;42.05;23.58;;;;;;;35.21;23.82;102229.69;5113577;28;20051;-78
2022/05/07 09:07:41;;;;;;;42.78;25.42;;;;;;;34.42;24.82;102223.47;5114535;28;20494;-78
2022/05/07 09:10:13;;;;;;;41.55;24.27;;;;;;;33.27;26.18;102222.19;5132811;28;20019;-78
2022/05/07 09:12:39;;;;;;;44.53;24.25;;;;;;;32.51;25.92;102225.72;5131930;28;20403;-78
2022/05/07 09:15:06;;;;;;;44.78;26.17;;;;;;;31.85;27.23;102221.50;5132604;28;20023;-78
2022/05/07 09:17:32;;;;;;;43.95;24.83;;;;;;;31.71;28.51;102221.66;5131989;28;20130;-77
2022/05/07 09:19:58;;;;;;;49.90;25.70;;;;;;;31.96;27.76;102220.03;5114283;28;20054;-79
2022/05/07 09:22:25;;;;;;;42.93;24.27;;;;;;;32.48;26.89;102215.28;5113726;28;20394;-77
2022/05/07 09:24:55;;;;;;;41.28;23.25;;;;;;;33.09;26.31;102217.88;5114021;28;20276;-77
2022/05/07 09:27:24;;;;;;;40.10;22.48;;;;;;;33.90;25.48;102212.00;5131419;28;20549;-78
2022/05/07 09:30:00;;;;;;;39.40;23.52;;;;;;;34.27;25.52;102212.94;5131665;28;20043;-78
2022/05/07 09:32:36;;;;;;;42.53;23.15;;;;;;;33.60;25.62;102211.22;5132569;28;20030;-79
2022/05/07 09:36:01;;;;;;;44.40;21.92;;;;;;;33.18;25.82;102216.66;5113347;28;20039;-78
2022/05/07 09:38:02;;;;;;;41.55;21.25;;;;;;;32.24;27.23;102214.97;5118604;28;20096;-77
2022/05/07 09:40:29;;;;;;;44.65;21.27;;;;;;;31.84;25.96;102211.59;5131606;28;20057;-77
2022/05/07 09:42:57;;;;;;;34.83;20.42;;;;;;;30.66;28.17;102219.66;5132173;28;20106;-78
2022/05/07 09:45:30;;;;;;;40.08;20.27;;;;;;;30.69;28.47;102215.44;5132225;28;20031;-78
2022/05/07 09:47:56;;;;;;;37.67;19.77;;;;;;;31.05;28.83;102216.06;5113284;28;20047;-78
2022/05/07 09:50:43;;;;;;;39.33;19.88;;;;;;;31.91;26.75;102207.19;5132180;28;20080;-77
2022/05/07 09:58:49;;;;;;;34.75;17.65;;;;;;;31.45;25.63;102216.03;5135325;28;20444;-78
2022/05/07 10:01:20;;;;;;;29.10;15.77;;;;;;;30.72;28.11;102214.78;5135752;28;20027;-77
2022/05/07 10:03:52;;;;;;;30.10;16.38;;;;;;;30.55;26.95;102215.47;5135743;28;20475;-78
2022/05/07 10:06:36;;;;;;;32.78;15.55;;;;;;;30.02;29.33;102218.97;5108499;28;20035;-78
2022/05/07 10:09:21;;;;;;;31.88;16.70;;;;;;;30.08;28.65;102208.66;5135739;28;20386;-78
2022/05/07 10:11:52;;;;;;;29.50;15.82;;;;;;;30.33;27.35;102202.50;5116572;28;20046;-78
2022/05/07 10:14:27;;;;;;;25.48;15.65;;;;;;;31.57;26.38;102205.19;5135658;28;20473;-78
2022/05/07 10:17:00;;;;;;;26.58;14.90;;;;;;;31.87;26.49;102202.63;5116397;28;20458;-78
2022/05/07 10:19:43;;;;;;;30.77;16.52;;;;;;;31.93;25.93;102207.66;5135455;28;20031;-79
2022/05/07 10:22:21;;;;;;;27.58;16.70;;;;;;;32.09;25.34;102202.44;5134810;28;20042;-77
2022/05/07 10:24:48;;;;;;;29.20;16.95;;;;;;;32.85;23.26;102207.38;5135390;28;20372;-77
2022/05/07 10:27:21;;;;;;;30.55;17.67;;;;;;;32.53;24.94;102192.94;5135284;28;20420;-78
2022/05/07 10:29:47;;;;;;;26.95;16.08;;;;;;;31.60;24.67;102189.88;5134689;28;20124;-78
2022/05/07 10:32:18;;;;;;;47.58;17.70;;;;;;;30.72;25.91;102199.03;5135352;28;20099;-78
2022/05/07 10:34:53;;;;;;;28.63;16.27;;;;;;;29.98;27.70;102200.59;5134516;28;20134;-79
2022/05/07 10:37:19;;;;;;;28.52;17.45;;;;;;;29.39;28.72;102194.97;5135238;28;20035;-79
2022/05/07 10:39:52;;;;;;;37.33;19.65;;;;;;;29.13;29.02;102194.69;5134396;28;20047;-78
2022/05/07 10:42:18;;;;;;;31.70;19.05;;;;;;;29.12;30.85;102190.31;5135138;28;20031;-78
2022/05/07 10:44:44;;;;;;;28.55;16.92;;;;;;;29.26;30.19;102196.66;5134995;28;20132;-78
2022/05/07 10:47:11;;;;;;;30.88;16.02;;;;;;;29.01;31.42;102196.34;5134217;27;20114;-77
2022/05/07 10:52:58;;;;;;;29.30;14.73;;;;;;;29.14;30.58;102185.31;5135306;27;20095;-77
2022/05/07 10:55:25;;;;;;;30.17;15.50;;;;;;;28.65;31.66;102184.03;5134878;28;20027;-77
2022/05/07 10:57:52;;;;;;;28.52;15.02;;;;;;;28.43;31.94;102191.31;5134056;28;20342;-77
2022/05/07 11:00:21;;;;;;;29.25;15.52;;;;;;;28.53;30.98;102183.69;5135002;28;20027;-78
2022/05/07 11:02:51;;;;;;;28.02;16.73;;;;;;;28.16;31.25;102184.59;5134794;28;20027;-78
2022/05/07 11:05:17;;;;;;;29.48;15.02;;;;;;;27.66;31.86;102177.91;5126445;28;20054;-78
2022/05/07 11:07:43;;;;;;;29.58;14.70;;;;;;;27.73;32.79;102184.69;5134792;27;20522;-78
2022/05/07 11:10:11;;;;;;;29.42;14.05;;;;;;;27.89;31.96;102179.78;5133857;28;20047;-77
2022/05/07 11:12:38;;;;;;;24.85;13.93;;;;;;;28.26;30.83;102192.69;5116132;28;20083;-78
2022/05/07 11:15:04;;;;;;;27.48;14.60;;;;;;;28.52;29.16;102187.56;5133695;28;20961;-78
2022/05/07 11:17:31;;;;;;;24.25;13.15;;;;;;;29.10;27.57;102180.72;5134716;28;20487;-78
2022/05/07 11:19:57;;;;;;;22.33;12.20;;;;;;;29.38;27.02;102184.28;5115991;28;20030;-78
2022/05/07 11:22:32;;;;;;;22.98;13.07;;;;;;;29.10;28.75;102186.22;5133598;28;20065;-78
2022/05/07 11:24:59;;;;;;;26.48;14.07;;;;;;;28.55;32.12;102184.22;5134594;28;20111;-77
2022/05/07 11:27:27;;;;;;;32.63;17.02;;;;;;;27.88;33.67;102183.66;5115549;28;20046;-77
2022/05/07 11:29:56;;;;;;;28.25;15.43;;;;;;;27.32;34.67;102172.59;5134356;28;20027;-78
2022/05/07 11:32:22;;;;;;;34.70;15.90;;;;;;;27.27;35.53;102178.16;5134497;28;20463;-77
2022/05/07 11:34:47;;;;;;;29.73;14.40;;;;;;;27.58;33.28;102171.13;5115309;28;20047;-77
2022/05/07 11:37:16;;;;;;;27.60;14.57;;;;;;;28.47;32.06;102184.91;5134103;28;20038;-77
2022/05/07 11:40:00;;;;;;;29.17;13.82;;;;;;;29.18;31.16;102177.25;5133469;28;20555;-76
2022/05/07 11:42:38;;;;;;;24.90;13.80;;;;;;;29.25;30.79;102172.97;5115737;28;20019;-77
2022/05/07 11:45:25;;;;;;;29.65;15.23;;;;;;;28.90;31.34;102176.44;5115146;28;20039;-77
2022/05/07 11:48:03;;;;;;;28.15;15.15;;;;;;;28.79;31.96;102172.22;5134052;27;20030;-77